sensor_id;sensor_type;location;lat;lon;timestamp;P1;durP1;ratioP1;P2;durP2;ratioP2
27794;SDS011;15176;50.844;4.412;2022-09-27T00:02:00;3.78;;;0.93;;
27794;SDS011;15176;50.844;4.412;2022-09-27T00:04:27;4.45;;;1.27;;
27794;SDS011;15176;50.844;4.412;2022-09-27T00:06:52;2.58;;;0.80;;
27794;SDS011;15176;50.844;4.412;2022-09-27T00:09:18;5.22;;;0.90;;
27794;SDS011;15176;50.844;4.412;2022-09-27T00:11:44;6.55;;;0.90;;
27794;SDS011;15176;50.844;4.412;2022-09-27T00:14:12;5.82;;;1.20;;
27794;SDS011;15176;50.844;4.412;2022-09-27T00:16:39;5.53;;;1.08;;
27794;SDS011;15176;50.844;4.412;2022-09-27T00:19:07;6.80;;;0.90;;
27794;SDS011;15176;50.844;4.412;2022-09-27T00:21:38;4.93;;;1.20;;
27794;SDS011;15176;50.844;4.412;2022-09-27T00:24:04;2.83;;;0.60;;
27794;SDS011;15176;50.844;4.412;2022-09-27T00:26:30;4.60;;;0.80;;
27794;SDS011;15176;50.844;4.412;2022-09-27T00:28:56;3.83;;;0.52;;
27794;SDS011;15176;50.844;4.412;2022-09-27T00:31:22;3.13;;;1.17;;
27794;SDS011;15176;50.844;4.412;2022-09-27T00:33:51;4.40;;;0.80;;
27794;SDS011;15176;50.844;4.412;2022-09-27T00:36:18;2.92;;;0.80;;
27794;SDS011;15176;50.844;4.412;2022-09-27T00:38:44;5.05;;;0.88;;
27794;SDS011;15176;50.844;4.412;2022-09-27T00:41:15;5.07;;;0.70;;
27794;SDS011;15176;50.844;4.412;2022-09-27T00:43:50;5.63;;;0.90;;
27794;SDS011;15176;50.844;4.412;2022-09-27T00:46:18;4.32;;;0.52;;
27794;SDS011;15176;50.844;4.412;2022-09-27T00:49:03;4.72;;;0.80;;
27794;SDS011;15176;50.844;4.412;2022-09-27T00:51:36;2.75;;;0.70;;
27794;SDS011;15176;50.844;4.412;2022-09-27T00:54:04;2.38;;;0.77;;
27794;SDS011;15176;50.844;4.412;2022-09-27T00:56:33;3.65;;;0.90;;
27794;SDS011;15176;50.844;4.412;2022-09-27T00:59:02;3.13;;;0.52;;
27794;SDS011;15176;50.844;4.412;2022-09-27T01:01:51;2.53;;;0.70;;
27794;SDS011;15176;50.844;4.412;2022-09-27T01:04:19;4.07;;;0.50;;
27794;SDS011;15176;50.844;4.412;2022-09-27T01:06:48;6.25;;;0.85;;
27794;SDS011;15176;50.844;4.412;2022-09-27T01:09:14;6.40;;;1.13;;
27794;SDS011;15176;50.844;4.412;2022-09-27T01:20:59;4.25;;;0.60;;
27794;SDS011;15176;50.844;4.412;2022-09-27T01:26:22;3.33;;;0.70;;
27794;SDS011;15176;50.844;4.412;2022-09-27T01:29:12;3.80;;;0.70;;
27794;SDS011;15176;50.844;4.412;2022-09-27T01:37:14;2.50;;;0.60;;
27794;SDS011;15176;50.844;4.412;2022-09-27T01:39:54;5.28;;;0.85;;
27794;SDS011;15176;50.844;4.412;2022-09-27T01:42:38;6.72;;;0.90;;
27794;SDS011;15176;50.844;4.412;2022-09-27T01:47:43;4.47;;;0.85;;
27794;SDS011;15176;50.844;4.412;2022-09-27T01:50:14;4.28;;;0.75;;
27794;SDS011;15176;50.844;4.412;2022-09-27T01:52:51;2.72;;;0.70;;
27794;SDS011;15176;50.844;4.412;2022-09-27T01:55:23;2.58;;;0.70;;
27794;SDS011;15176;50.844;4.412;2022-09-27T01:58:05;2.45;;;0.70;;
27794;SDS011;15176;50.844;4.412;2022-09-27T02:00:47;3.70;;;0.88;;
27794;SDS011;15176;50.844;4.412;2022-09-27T02:03:16;3.25;;;0.70;;
27794;SDS011;15176;50.844;4.412;2022-09-27T02:05:53;4.68;;;0.75;;
27794;SDS011;15176;50.844;4.412;2022-09-27T02:08:36;4.22;;;0.73;;
27794;SDS011;15176;50.844;4.412;2022-09-27T02:11:08;5.72;;;1.35;;
27794;SDS011;15176;50.844;4.412;2022-09-27T02:16:27;4.53;;;0.90;;
27794;SDS011;15176;50.844;4.412;2022-09-27T02:21:55;5.53;;;1.00;;
27794;SDS011;15176;50.844;4.412;2022-09-27T02:24:37;4.00;;;0.73;;
27794;SDS011;15176;50.844;4.412;2022-09-27T02:27:16;7.03;;;0.93;;
27794;SDS011;15176;50.844;4.412;2022-09-27T02:29:52;6.57;;;1.58;;
27794;SDS011;15176;50.844;4.412;2022-09-27T02:32:39;3.03;;;0.68;;
27794;SDS011;15176;50.844;4.412;2022-09-27T02:35:28;2.17;;;0.57;;
27794;SDS011;15176;50.844;4.412;2022-09-27T02:37:55;2.92;;;0.52;;
27794;SDS011;15176;50.844;4.412;2022-09-27T02:40:22;4.32;;;0.75;;
27794;SDS011;15176;50.844;4.412;2022-09-27T02:42:50;1.88;;;0.60;;
27794;SDS011;15176;50.844;4.412;2022-09-27T02:45:17;5.60;;;0.93;;
27794;SDS011;15176;50.844;4.412;2022-09-27T02:47:58;6.20;;;1.23;;
27794;SDS011;15176;50.844;4.412;2022-09-27T02:56:33;6.20;;;0.90;;
27794;SDS011;15176;50.844;4.412;2022-09-27T03:01:50;3.47;;;1.00;;
27794;SDS011;15176;50.844;4.412;2022-09-27T03:07:08;2.90;;;0.68;;
27794;SDS011;15176;50.844;4.412;2022-09-27T03:09:42;3.53;;;0.77;;
27794;SDS011;15176;50.844;4.412;2022-09-27T03:12:12;6.80;;;1.02;;
27794;SDS011;15176;50.844;4.412;2022-09-27T03:14:44;3.85;;;0.98;;
27794;SDS011;15176;50.844;4.412;2022-09-27T03:17:10;2.92;;;0.70;;
27794;SDS011;15176;50.844;4.412;2022-09-27T03:19:36;3.22;;;0.90;;
27794;SDS011;15176;50.844;4.412;2022-09-27T03:22:02;2.53;;;0.73;;
27794;SDS011;15176;50.844;4.412;2022-09-27T03:24:27;5.28;;;0.93;;
27794;SDS011;15176;50.844;4.412;2022-09-27T03:26:53;4.40;;;0.85;;
27794;SDS011;15176;50.844;4.412;2022-09-27T03:29:19;2.58;;;0.80;;
27794;SDS011;15176;50.844;4.412;2022-09-27T03:31:44;3.40;;;0.95;;
27794;SDS011;15176;50.844;4.412;2022-09-27T03:34:10;3.72;;;0.80;;
27794;SDS011;15176;50.844;4.412;2022-09-27T03:36:35;4.10;;;0.90;;
27794;SDS011;15176;50.844;4.412;2022-09-27T03:39:02;3.78;;;1.00;;
27794;SDS011;15176;50.844;4.412;2022-09-27T03:41:27;4.47;;;0.82;;
27794;SDS011;15176;50.844;4.412;2022-09-27T03:43:53;7.93;;;0.85;;
27794;SDS011;15176;50.844;4.412;2022-09-27T03:46:21;2.72;;;0.98;;
27794;SDS011;15176;50.844;4.412;2022-09-27T03:48:47;5.15;;;1.10;;
27794;SDS011;15176;50.844;4.412;2022-09-27T03:51:13;4.22;;;0.93;;
27794;SDS011;15176;50.844;4.412;2022-09-27T03:53:38;2.65;;;0.85;;
27794;SDS011;15176;50.844;4.412;2022-09-27T03:56:04;3.63;;;1.00;;
27794;SDS011;15176;50.844;4.412;2022-09-27T03:58:30;5.55;;;0.98;;
27794;SDS011;15176;50.844;4.412;2022-09-27T04:00:55;3.15;;;0.80;;
27794;SDS011;15176;50.844;4.412;2022-09-27T04:03:21;3.58;;;1.00;;
27794;SDS011;15176;50.844;4.412;2022-09-27T04:05:47;2.75;;;0.77;;
27794;SDS011;15176;50.844;4.412;2022-09-27T04:08:12;4.60;;;0.98;;
27794;SDS011;15176;50.844;4.412;2022-09-27T04:10:38;4.18;;;1.20;;
27794;SDS011;15176;50.844;4.412;2022-09-27T04:13:04;3.85;;;1.08;;
27794;SDS011;15176;50.844;4.412;2022-09-27T04:15:30;5.03;;;1.48;;
27794;SDS011;15176;50.844;4.412;2022-09-27T04:17:55;3.30;;;1.25;;
27794;SDS011;15176;50.844;4.412;2022-09-27T04:20:21;5.70;;;1.30;;
27794;SDS011;15176;50.844;4.412;2022-09-27T04:22:46;5.25;;;1.23;;
27794;SDS011;15176;50.844;4.412;2022-09-27T04:25:12;4.45;;;1.10;;
27794;SDS011;15176;50.844;4.412;2022-09-27T04:27:39;3.45;;;1.00;;
27794;SDS011;15176;50.844;4.412;2022-09-27T04:30:09;5.82;;;1.55;;
27794;SDS011;15176;50.844;4.412;2022-09-27T04:32:42;3.75;;;1.10;;
27794;SDS011;15176;50.844;4.412;2022-09-27T04:35:09;4.50;;;2.47;;
27794;SDS011;15176;50.844;4.412;2022-09-27T04:37:55;4.85;;;1.45;;
27794;SDS011;15176;50.844;4.412;2022-09-27T04:40:21;4.55;;;1.55;;
27794;SDS011;15176;50.844;4.412;2022-09-27T04:42:48;6.28;;;1.70;;
27794;SDS011;15176;50.844;4.412;2022-09-27T04:45:14;3.30;;;1.60;;
27794;SDS011;15176;50.844;4.412;2022-09-27T04:47:42;6.57;;;2.47;;
27794;SDS011;15176;50.844;4.412;2022-09-27T04:50:09;6.90;;;2.22;;
27794;SDS011;15176;50.844;4.412;2022-09-27T04:52:35;5.35;;;2.35;;
27794;SDS011;15176;50.844;4.412;2022-09-27T04:55:01;6.15;;;2.35;;
27794;SDS011;15176;50.844;4.412;2022-09-27T04:57:27;6.65;;;2.75;;
27794;SDS011;15176;50.844;4.412;2022-09-27T04:59:53;5.57;;;2.75;;
27794;SDS011;15176;50.844;4.412;2022-09-27T05:02:18;8.73;;;2.97;;
27794;SDS011;15176;50.844;4.412;2022-09-27T05:04:44;6.10;;;3.08;;
27794;SDS011;15176;50.844;4.412;2022-09-27T05:07:10;6.50;;;2.67;;
27794;SDS011;15176;50.844;4.412;2022-09-27T05:09:35;5.88;;;2.20;;
27794;SDS011;15176;50.844;4.412;2022-09-27T05:12:01;5.95;;;2.47;;
27794;SDS011;15176;50.844;4.412;2022-09-27T05:14:27;6.63;;;2.80;;
27794;SDS011;15176;50.844;4.412;2022-09-27T05:16:53;5.97;;;2.28;;
27794;SDS011;15176;50.844;4.412;2022-09-27T05:19:19;4.45;;;1.92;;
27794;SDS011;15176;50.844;4.412;2022-09-27T05:21:45;8.23;;;2.40;;
27794;SDS011;15176;50.844;4.412;2022-09-27T05:24:10;4.93;;;2.08;;
27794;SDS011;15176;50.844;4.412;2022-09-27T05:26:36;6.63;;;2.22;;
27794;SDS011;15176;50.844;4.412;2022-09-27T05:29:02;6.05;;;2.22;;
27794;SDS011;15176;50.844;4.412;2022-09-27T05:31:28;6.50;;;2.47;;
27794;SDS011;15176;50.844;4.412;2022-09-27T05:33:53;4.45;;;2.25;;
27794;SDS011;15176;50.844;4.412;2022-09-27T05:36:19;4.85;;;2.13;;
27794;SDS011;15176;50.844;4.412;2022-09-27T05:38:45;10.88;;;2.30;;
27794;SDS011;15176;50.844;4.412;2022-09-27T05:41:11;6.50;;;2.70;;
27794;SDS011;15176;50.844;4.412;2022-09-27T05:43:37;6.25;;;2.55;;
27794;SDS011;15176;50.844;4.412;2022-09-27T05:46:03;8.98;;;4.15;;
27794;SDS011;15176;50.844;4.412;2022-09-27T05:48:29;8.57;;;2.70;;
27794;SDS011;15176;50.844;4.412;2022-09-27T05:50:55;8.73;;;2.22;;
27794;SDS011;15176;50.844;4.412;2022-09-27T05:53:21;5.03;;;2.10;;
27794;SDS011;15176;50.844;4.412;2022-09-27T05:55:47;7.93;;;2.40;;
27794;SDS011;15176;50.844;4.412;2022-09-27T05:58:13;10.52;;;4.65;;
27794;SDS011;15176;50.844;4.412;2022-09-27T06:00:40;7.40;;;2.28;;
27794;SDS011;15176;50.844;4.412;2022-09-27T06:03:07;5.13;;;2.00;;
27794;SDS011;15176;50.844;4.412;2022-09-27T06:05:37;11.32;;;2.08;;
27794;SDS011;15176;50.844;4.412;2022-09-27T06:08:05;4.80;;;1.77;;
27794;SDS011;15176;50.844;4.412;2022-09-27T06:10:32;10.60;;;6.53;;
27794;SDS011;15176;50.844;4.412;2022-09-27T06:12:59;6.75;;;3.17;;
27794;SDS011;15176;50.844;4.412;2022-09-27T06:15:29;5.32;;;2.30;;
27794;SDS011;15176;50.844;4.412;2022-09-27T06:17:56;5.72;;;1.90;;
27794;SDS011;15176;50.844;4.412;2022-09-27T06:20:26;5.90;;;2.00;;
27794;SDS011;15176;50.844;4.412;2022-09-27T06:22:51;3.08;;;1.60;;
27794;SDS011;15176;50.844;4.412;2022-09-27T06:25:18;8.98;;;4.38;;
27794;SDS011;15176;50.844;4.412;2022-09-27T06:27:44;5.68;;;2.15;;
27794;SDS011;15176;50.844;4.412;2022-09-27T06:30:10;5.97;;;1.73;;
27794;SDS011;15176;50.844;4.412;2022-09-27T06:32:36;7.25;;;2.05;;
27794;SDS011;15176;50.844;4.412;2022-09-27T06:35:03;3.67;;;1.58;;
27794;SDS011;15176;50.844;4.412;2022-09-27T06:37:30;4.32;;;1.98;;
27794;SDS011;15176;50.844;4.412;2022-09-27T06:39:55;6.97;;;1.95;;
27794;SDS011;15176;50.844;4.412;2022-09-27T06:42:21;5.22;;;2.15;;
27794;SDS011;15176;50.844;4.412;2022-09-27T06:44:47;9.27;;;2.22;;
27794;SDS011;15176;50.844;4.412;2022-09-27T06:47:14;9.13;;;2.25;;
27794;SDS011;15176;50.844;4.412;2022-09-27T06:49:43;3.70;;;1.90;;
27794;SDS011;15176;50.844;4.412;2022-09-27T06:52:08;12.02;;;4.10;;
27794;SDS011;15176;50.844;4.412;2022-09-27T06:54:35;10.52;;;2.00;;
27794;SDS011;15176;50.844;4.412;2022-09-27T06:57:01;6.65;;;2.50;;
27794;SDS011;15176;50.844;4.412;2022-09-27T06:59:27;7.63;;;2.50;;
27794;SDS011;15176;50.844;4.412;2022-09-27T07:02:11;5.45;;;2.38;;
27794;SDS011;15176;50.844;4.412;2022-09-27T07:04:37;10.23;;;2.58;;
27794;SDS011;15176;50.844;4.412;2022-09-27T07:07:03;9.85;;;2.22;;
27794;SDS011;15176;50.844;4.412;2022-09-27T07:09:30;4.85;;;2.40;;
27794;SDS011;15176;50.844;4.412;2022-09-27T07:11:55;7.25;;;2.88;;
27794;SDS011;15176;50.844;4.412;2022-09-27T07:14:21;6.07;;;2.22;;
27794;SDS011;15176;50.844;4.412;2022-09-27T07:16:47;11.27;;;2.20;;
27794;SDS011;15176;50.844;4.412;2022-09-27T07:19:13;8.13;;;2.45;;
27794;SDS011;15176;50.844;4.412;2022-09-27T07:21:39;8.25;;;2.28;;
27794;SDS011;15176;50.844;4.412;2022-09-27T07:24:05;9.13;;;2.45;;
27794;SDS011;15176;50.844;4.412;2022-09-27T07:26:30;6.15;;;3.10;;
27794;SDS011;15176;50.844;4.412;2022-09-27T07:28:56;7.93;;;2.63;;
27794;SDS011;15176;50.844;4.412;2022-09-27T07:31:24;9.00;;;2.83;;
27794;SDS011;15176;50.844;4.412;2022-09-27T07:33:53;7.95;;;2.50;;
27794;SDS011;15176;50.844;4.412;2022-09-27T07:36:19;7.68;;;2.10;;
27794;SDS011;15176;50.844;4.412;2022-09-27T07:38:48;5.35;;;2.63;;
27794;SDS011;15176;50.844;4.412;2022-09-27T07:41:13;3.83;;;2.10;;
27794;SDS011;15176;50.844;4.412;2022-09-27T07:43:40;5.00;;;2.35;;
27794;SDS011;15176;50.844;4.412;2022-09-27T07:46:08;8.68;;;2.60;;
27794;SDS011;15176;50.844;4.412;2022-09-27T07:48:37;5.97;;;2.30;;
27794;SDS011;15176;50.844;4.412;2022-09-27T07:51:03;6.85;;;2.20;;
27794;SDS011;15176;50.844;4.412;2022-09-27T07:53:31;5.80;;;2.33;;
27794;SDS011;15176;50.844;4.412;2022-09-27T07:55:57;4.25;;;2.17;;
27794;SDS011;15176;50.844;4.412;2022-09-27T07:58:23;7.25;;;2.33;;
27794;SDS011;15176;50.844;4.412;2022-09-27T08:00:49;6.03;;;2.63;;
27794;SDS011;15176;50.844;4.412;2022-09-27T08:03:15;6.45;;;2.50;;
27794;SDS011;15176;50.844;4.412;2022-09-27T08:05:42;6.00;;;2.38;;
27794;SDS011;15176;50.844;4.412;2022-09-27T08:08:09;8.52;;;4.38;;
27794;SDS011;15176;50.844;4.412;2022-09-27T08:10:35;6.68;;;2.30;;
27794;SDS011;15176;50.844;4.412;2022-09-27T08:13:01;7.90;;;2.50;;
27794;SDS011;15176;50.844;4.412;2022-09-27T08:15:28;8.70;;;2.40;;
27794;SDS011;15176;50.844;4.412;2022-09-27T08:17:59;6.70;;;2.20;;
27794;SDS011;15176;50.844;4.412;2022-09-27T08:20:25;9.60;;;2.42;;
27794;SDS011;15176;50.844;4.412;2022-09-27T08:22:51;5.75;;;2.35;;
27794;SDS011;15176;50.844;4.412;2022-09-27T08:25:17;7.43;;;2.42;;
27794;SDS011;15176;50.844;4.412;2022-09-27T08:27:42;6.57;;;2.13;;
27794;SDS011;15176;50.844;4.412;2022-09-27T08:30:08;4.82;;;2.05;;
27794;SDS011;15176;50.844;4.412;2022-09-27T08:32:34;4.53;;;1.98;;
27794;SDS011;15176;50.844;4.412;2022-09-27T08:35:00;4.65;;;1.95;;
27794;SDS011;15176;50.844;4.412;2022-09-27T08:37:26;5.70;;;2.20;;
27794;SDS011;15176;50.844;4.412;2022-09-27T08:39:52;5.30;;;2.10;;
27794;SDS011;15176;50.844;4.412;2022-09-27T08:42:27;4.05;;;1.70;;
27794;SDS011;15176;50.844;4.412;2022-09-27T08:45:17;5.75;;;1.98;;
27794;SDS011;15176;50.844;4.412;2022-09-27T08:47:54;5.07;;;2.10;;
27794;SDS011;15176;50.844;4.412;2022-09-27T08:50:28;5.28;;;2.00;;
27794;SDS011;15176;50.844;4.412;2022-09-27T08:55:49;5.22;;;1.90;;
27794;SDS011;15176;50.844;4.412;2022-09-27T09:01:10;3.67;;;1.58;;
27794;SDS011;15176;50.844;4.412;2022-09-27T09:03:43;5.68;;;1.90;;
27794;SDS011;15176;50.844;4.412;2022-09-27T09:09:18;5.28;;;1.60;;
27794;SDS011;15176;50.844;4.412;2022-09-27T09:12:16;3.45;;;1.10;;
27794;SDS011;15176;50.844;4.412;2022-09-27T09:20:21;5.97;;;2.00;;
27794;SDS011;15176;50.844;4.412;2022-09-27T09:25:40;3.40;;;1.40;;
27794;SDS011;15176;50.844;4.412;2022-09-27T09:31:39;5.40;;;1.60;;
27794;SDS011;15176;50.844;4.412;2022-09-27T09:34:25;10.45;;;3.30;;
27794;SDS011;15176;50.844;4.412;2022-09-27T09:37:02;9.45;;;2.65;;
27794;SDS011;15176;50.844;4.412;2022-09-27T09:39:43;7.45;;;2.03;;
27794;SDS011;15176;50.844;4.412;2022-09-27T09:42:23;4.90;;;2.15;;
27794;SDS011;15176;50.844;4.412;2022-09-27T09:50:44;5.53;;;1.50;;
27794;SDS011;15176;50.844;4.412;2022-09-27T09:53:24;5.43;;;1.80;;
27794;SDS011;15176;50.844;4.412;2022-09-27T09:56:07;7.28;;;1.67;;
27794;SDS011;15176;50.844;4.412;2022-09-27T09:58:45;7.20;;;2.72;;
27794;SDS011;15176;50.844;4.412;2022-09-27T10:01:19;8.55;;;2.28;;
27794;SDS011;15176;50.844;4.412;2022-09-27T10:03:47;6.45;;;1.95;;
27794;SDS011;15176;50.844;4.412;2022-09-27T10:06:13;6.78;;;2.15;;
27794;SDS011;15176;50.844;4.412;2022-09-27T10:08:41;7.53;;;2.40;;
27794;SDS011;15176;50.844;4.412;2022-09-27T10:11:09;10.93;;;2.88;;
27794;SDS011;15176;50.844;4.412;2022-09-27T10:13:44;10.25;;;2.53;;
27794;SDS011;15176;50.844;4.412;2022-09-27T10:16:10;6.85;;;2.40;;
27794;SDS011;15176;50.844;4.412;2022-09-27T10:18:40;8.45;;;2.03;;
27794;SDS011;15176;50.844;4.412;2022-09-27T10:21:09;6.97;;;1.90;;
27794;SDS011;15176;50.844;4.412;2022-09-27T10:26:30;7.90;;;2.08;;
27794;SDS011;15176;50.844;4.412;2022-09-27T10:28:56;14.93;;;4.32;;
27794;SDS011;15176;50.844;4.412;2022-09-27T10:31:37;6.70;;;2.05;;
27794;SDS011;15176;50.844;4.412;2022-09-27T10:34:15;8.13;;;2.10;;
27794;SDS011;15176;50.844;4.412;2022-09-27T10:37:01;9.07;;;2.67;;
27794;SDS011;15176;50.844;4.412;2022-09-27T10:39:29;6.88;;;1.70;;
27794;SDS011;15176;50.844;4.412;2022-09-27T10:41:55;6.70;;;2.05;;
27794;SDS011;15176;50.844;4.412;2022-09-27T10:44:25;8.27;;;1.63;;
27794;SDS011;15176;50.844;4.412;2022-09-27T10:47:04;8.98;;;2.05;;
27794;SDS011;15176;50.844;4.412;2022-09-27T10:49:33;7.20;;;1.90;;
27794;SDS011;15176;50.844;4.412;2022-09-27T10:52:05;7.63;;;1.90;;
27794;SDS011;15176;50.844;4.412;2022-09-27T10:54:38;10.27;;;2.20;;
27794;SDS011;15176;50.844;4.412;2022-09-27T10:57:15;6.55;;;2.40;;
27794;SDS011;15176;50.844;4.412;2022-09-27T10:59:46;10.05;;;2.88;;
27794;SDS011;15176;50.844;4.412;2022-09-27T11:02:36;10.05;;;3.08;;
27794;SDS011;15176;50.844;4.412;2022-09-27T11:05:49;10.40;;;2.53;;
27794;SDS011;15176;50.844;4.412;2022-09-27T11:07:53;10.05;;;2.42;;
27794;SDS011;15176;50.844;4.412;2022-09-27T11:21:12;5.97;;;1.33;;
27794;SDS011;15176;50.844;4.412;2022-09-27T11:23:55;7.38;;;1.30;;
27794;SDS011;15176;50.844;4.412;2022-09-27T11:26:49;4.75;;;0.90;;
27794;SDS011;15176;50.844;4.412;2022-09-27T11:29:28;5.45;;;0.90;;
27794;SDS011;15176;50.844;4.412;2022-09-27T11:37:43;8.85;;;1.15;;
27794;SDS011;15176;50.844;4.412;2022-09-27T11:40:29;5.25;;;0.80;;
27794;SDS011;15176;50.844;4.412;2022-09-27T11:48:37;3.88;;;0.98;;
27794;SDS011;15176;50.844;4.412;2022-09-27T11:51:23;5.03;;;1.38;;
27794;SDS011;15176;50.844;4.412;2022-09-27T11:56:49;4.68;;;0.95;;
27794;SDS011;15176;50.844;4.412;2022-09-27T12:04:49;3.42;;;1.00;;
27794;SDS011;15176;50.844;4.412;2022-09-27T12:10:13;5.45;;;1.15;;
27794;SDS011;15176;50.844;4.412;2022-09-27T12:12:42;5.05;;;1.30;;
27794;SDS011;15176;50.844;4.412;2022-09-27T12:15:14;4.63;;;1.20;;
27794;SDS011;15176;50.844;4.412;2022-09-27T12:17:44;4.43;;;1.10;;
27794;SDS011;15176;50.844;4.412;2022-09-27T12:20:21;4.78;;;1.23;;
27794;SDS011;15176;50.844;4.412;2022-09-27T12:22:57;4.07;;;1.10;;
27794;SDS011;15176;50.844;4.412;2022-09-27T12:25:33;5.55;;;1.20;;
27794;SDS011;15176;50.844;4.412;2022-09-27T12:28:08;4.43;;;1.20;;
27794;SDS011;15176;50.844;4.412;2022-09-27T12:30:49;5.63;;;1.40;;
27794;SDS011;15176;50.844;4.412;2022-09-27T12:36:32;4.88;;;1.20;;
27794;SDS011;15176;50.844;4.412;2022-09-27T12:39:45;5.93;;;1.42;;
27794;SDS011;15176;50.844;4.412;2022-09-27T12:42:13;4.95;;;1.60;;
27794;SDS011;15176;50.844;4.412;2022-09-27T12:44:43;4.25;;;1.40;;
27794;SDS011;15176;50.844;4.412;2022-09-27T12:47:42;7.68;;;1.58;;
27794;SDS011;15176;50.844;4.412;2022-09-27T12:50:35;9.63;;;1.15;;
27794;SDS011;15176;50.844;4.412;2022-09-27T12:53:20;5.35;;;1.17;;
27794;SDS011;15176;50.844;4.412;2022-09-27T12:55:54;5.68;;;1.23;;
27794;SDS011;15176;50.844;4.412;2022-09-27T12:58:48;8.43;;;1.83;;
27794;SDS011;15176;50.844;4.412;2022-09-27T13:04:24;6.07;;;2.85;;
27794;SDS011;15176;50.844;4.412;2022-09-27T13:07:07;6.18;;;1.33;;
27794;SDS011;15176;50.844;4.412;2022-09-27T13:12:26;4.05;;;1.20;;
27794;SDS011;15176;50.844;4.412;2022-09-27T13:31:00;3.15;;;1.10;;
27794;SDS011;15176;50.844;4.412;2022-09-27T13:33:47;5.47;;;1.45;;
27794;SDS011;15176;50.844;4.412;2022-09-27T13:38:59;4.07;;;0.95;;
27794;SDS011;15176;50.844;4.412;2022-09-27T13:53:12;5.97;;;1.27;;
27794;SDS011;15176;50.844;4.412;2022-09-27T13:55:48;6.25;;;1.50;;
27794;SDS011;15176;50.844;4.412;2022-09-27T14:00:47;9.65;;;4.07;;
27794;SDS011;15176;50.844;4.412;2022-09-27T14:05:54;6.38;;;2.15;;
27794;SDS011;15176;50.844;4.412;2022-09-27T14:10:55;7.80;;;1.73;;
27794;SDS011;15176;50.844;4.412;2022-09-27T14:13:24;8.88;;;1.77;;
27794;SDS011;15176;50.844;4.412;2022-09-27T14:15:51;8.27;;;1.80;;
27794;SDS011;15176;50.844;4.412;2022-09-27T14:18:18;9.88;;;2.13;;
27794;SDS011;15176;50.844;4.412;2022-09-27T14:20:46;9.52;;;1.98;;
27794;SDS011;15176;50.844;4.412;2022-09-27T14:23:22;9.73;;;1.83;;
27794;SDS011;15176;50.844;4.412;2022-09-27T14:25:51;8.95;;;1.58;;
27794;SDS011;15176;50.844;4.412;2022-09-27T14:28:21;7.47;;;1.65;;
27794;SDS011;15176;50.844;4.412;2022-09-27T14:31:05;9.02;;;1.90;;
27794;SDS011;15176;50.844;4.412;2022-09-27T14:33:35;7.13;;;1.42;;
27794;SDS011;15176;50.844;4.412;2022-09-27T14:36:01;7.10;;;2.25;;
27794;SDS011;15176;50.844;4.412;2022-09-27T14:38:51;11.57;;;1.75;;
27794;SDS011;15176;50.844;4.412;2022-09-27T14:41:16;11.43;;;1.90;;
27794;SDS011;15176;50.844;4.412;2022-09-27T14:43:43;12.05;;;1.80;;
27794;SDS011;15176;50.844;4.412;2022-09-27T14:46:26;10.00;;;2.28;;
27794;SDS011;15176;50.844;4.412;2022-09-27T14:48:53;9.55;;;1.92;;
27794;SDS011;15176;50.844;4.412;2022-09-27T14:51:23;5.50;;;1.73;;
27794;SDS011;15176;50.844;4.412;2022-09-27T14:53:55;7.55;;;1.80;;
27794;SDS011;15176;50.844;4.412;2022-09-27T14:56:28;5.75;;;1.20;;
27794;SDS011;15176;50.844;4.412;2022-09-27T14:58:57;7.07;;;1.75;;
27794;SDS011;15176;50.844;4.412;2022-09-27T15:01:27;6.00;;;1.77;;
27794;SDS011;15176;50.844;4.412;2022-09-27T15:03:53;7.18;;;1.75;;
27794;SDS011;15176;50.844;4.412;2022-09-27T15:06:21;5.57;;;1.83;;
27794;SDS011;15176;50.844;4.412;2022-09-27T15:08:48;5.78;;;1.52;;
27794;SDS011;15176;50.844;4.412;2022-09-27T15:11:17;9.48;;;1.73;;
27794;SDS011;15176;50.844;4.412;2022-09-27T15:13:44;6.80;;;1.40;;
27794;SDS011;15176;50.844;4.412;2022-09-27T15:16:16;5.18;;;1.05;;
27794;SDS011;15176;50.844;4.412;2022-09-27T15:18:45;4.88;;;1.35;;
27794;SDS011;15176;50.844;4.412;2022-09-27T15:21:13;4.20;;;1.40;;
27794;SDS011;15176;50.844;4.412;2022-09-27T15:23:51;7.22;;;1.30;;
27794;SDS011;15176;50.844;4.412;2022-09-27T15:26:23;5.40;;;1.15;;
27794;SDS011;15176;50.844;4.412;2022-09-27T15:28:57;3.28;;;0.95;;
27794;SDS011;15176;50.844;4.412;2022-09-27T15:31:33;6.22;;;1.38;;
27794;SDS011;15176;50.844;4.412;2022-09-27T15:34:00;8.18;;;1.80;;
27794;SDS011;15176;50.844;4.412;2022-09-27T15:39:11;5.50;;;1.08;;
27794;SDS011;15176;50.844;4.412;2022-09-27T15:44:43;3.17;;;0.90;;
27794;SDS011;15176;50.844;4.412;2022-09-27T15:52:41;4.55;;;0.90;;
27794;SDS011;15176;50.844;4.412;2022-09-27T15:55:15;8.07;;;1.35;;
27794;SDS011;15176;50.844;4.412;2022-09-27T15:57:44;3.65;;;0.90;;
27794;SDS011;15176;50.844;4.412;2022-09-27T16:00:14;9.38;;;1.45;;
27794;SDS011;15176;50.844;4.412;2022-09-27T16:02:42;5.93;;;1.55;;
27794;SDS011;15176;50.844;4.412;2022-09-27T16:05:08;11.75;;;6.05;;
27794;SDS011;15176;50.844;4.412;2022-09-27T16:07:34;7.57;;;3.22;;
27794;SDS011;15176;50.844;4.412;2022-09-27T16:10:00;16.20;;;3.58;;
27794;SDS011;15176;50.844;4.412;2022-09-27T16:12:26;8.35;;;2.05;;
27794;SDS011;15176;50.844;4.412;2022-09-27T16:14:54;5.97;;;1.80;;
27794;SDS011;15176;50.844;4.412;2022-09-27T16:17:20;6.60;;;3.08;;
27794;SDS011;15176;50.844;4.412;2022-09-27T16:19:46;11.23;;;5.25;;
27794;SDS011;15176;50.844;4.412;2022-09-27T16:22:12;8.77;;;4.32;;
27794;SDS011;15176;50.844;4.412;2022-09-27T16:24:38;9.77;;;4.13;;
27794;SDS011;15176;50.844;4.412;2022-09-27T16:27:03;7.10;;;3.80;;
27794;SDS011;15176;50.844;4.412;2022-09-27T16:29:29;10.60;;;5.28;;
27794;SDS011;15176;50.844;4.412;2022-09-27T16:31:55;6.40;;;2.17;;
27794;SDS011;15176;50.844;4.412;2022-09-27T16:34:21;8.93;;;4.10;;
27794;SDS011;15176;50.844;4.412;2022-09-27T16:36:48;6.75;;;1.50;;
27794;SDS011;15176;50.844;4.412;2022-09-27T16:39:14;6.43;;;2.40;;
27794;SDS011;15176;50.844;4.412;2022-09-27T16:41:40;8.77;;;1.83;;
27794;SDS011;15176;50.844;4.412;2022-09-27T16:44:15;5.40;;;1.60;;
27794;SDS011;15176;50.844;4.412;2022-09-27T16:46:41;6.55;;;1.80;;
27794;SDS011;15176;50.844;4.412;2022-09-27T16:49:10;4.93;;;1.40;;
27794;SDS011;15176;50.844;4.412;2022-09-27T16:51:54;5.32;;;1.50;;
27794;SDS011;15176;50.844;4.412;2022-09-27T16:54:29;5.97;;;2.03;;
27794;SDS011;15176;50.844;4.412;2022-09-27T16:56:55;9.85;;;2.42;;
27794;SDS011;15176;50.844;4.412;2022-09-27T16:59:22;6.15;;;1.65;;
27794;SDS011;15176;50.844;4.412;2022-09-27T17:01:49;7.80;;;1.75;;
27794;SDS011;15176;50.844;4.412;2022-09-27T17:04:15;6.10;;;1.55;;
27794;SDS011;15176;50.844;4.412;2022-09-27T17:06:41;4.57;;;2.05;;
27794;SDS011;15176;50.844;4.412;2022-09-27T17:09:07;9.20;;;2.65;;
27794;SDS011;15176;50.844;4.412;2022-09-27T17:11:33;6.90;;;2.42;;
27794;SDS011;15176;50.844;4.412;2022-09-27T17:13:58;10.00;;;2.65;;
27794;SDS011;15176;50.844;4.412;2022-09-27T17:16:24;13.68;;;3.22;;
27794;SDS011;15176;50.844;4.412;2022-09-27T17:18:52;11.60;;;4.72;;
27794;SDS011;15176;50.844;4.412;2022-09-27T17:21:18;6.00;;;2.10;;
27794;SDS011;15176;50.844;4.412;2022-09-27T17:23:43;8.73;;;2.70;;
27794;SDS011;15176;50.844;4.412;2022-09-27T17:28:40;7.05;;;2.00;;
27794;SDS011;15176;50.844;4.412;2022-09-27T17:31:07;7.97;;;2.47;;
27794;SDS011;15176;50.844;4.412;2022-09-27T17:33:39;9.43;;;2.72;;
27794;SDS011;15176;50.844;4.412;2022-09-27T17:36:13;9.90;;;3.05;;
27794;SDS011;15176;50.844;4.412;2022-09-27T17:38:44;11.05;;;4.05;;
27794;SDS011;15176;50.844;4.412;2022-09-27T17:41:12;5.72;;;2.42;;
27794;SDS011;15176;50.844;4.412;2022-09-27T17:43:39;11.18;;;3.60;;
27794;SDS011;15176;50.844;4.412;2022-09-27T17:46:13;11.52;;;3.20;;